Time;durP1;ratioP1;P1;durP2;ratioP2;P2;SDS_P1;SDS_P2;PMS_P1;PMS_P2;Temp;Humidity;BMP_temperature;BMP_pressure;BME280_temperature;BME280_humidity;BME280_pressure;Samples;Min_cycle;Max_cycle;Signal;HPM_P1;HPM_P2
2023/08/19 00:00:15;;;;;;;24.63;15.32;;;;;;;-142.57;69.80;115900.28;4970815;29;20035;-82
2023/08/19 00:02:47;;;;;;;25.38;18.27;;;;;;;-142.57;70.71;115900.28;4973692;29;20037;-82
2023/08/19 00:05:13;;;;;;;29.58;17.10;;;;;;;-142.57;70.66;115900.28;4975198;28;20031;-80
2023/08/19 00:07:38;;;;;;;27.02;18.85;;;;;;;-142.57;70.39;115900.28;4988011;28;20074;-83
2023/08/19 00:10:05;;;;;;;28.33;19.33;;;;;;;-142.57;70.45;115900.28;4989531;28;20093;-81
2023/08/19 00:12:31;;;;;;;27.33;21.08;;;;;;;-142.57;71.22;115900.28;4989914;28;20030;-81
2023/08/19 00:14:56;;;;;;;26.95;20.90;;;;;;;-142.57;71.40;115900.28;4993498;28;20017;-80
2023/08/19 00:17:25;;;;;;;36.08;21.02;;;;;;;-142.57;71.91;115900.28;4994355;28;20038;-81
2023/08/19 00:19:51;;;;;;;27.27;18.75;;;;;;;-142.57;72.21;115900.28;4994772;28;20038;-81
2023/08/19 00:22:20;;;;;;;31.13;20.92;;;;;;;-142.57;73.03;115900.28;4995554;28;20031;-81
2023/08/19 00:24:48;;;;;;;28.20;18.73;;;;;;;-142.57;73.55;115900.28;4995015;28;20039;-80
2023/08/19 00:27:14;;;;;;;29.30;18.80;;;;;;;-142.57;72.48;115900.28;4994808;28;20106;-80
2023/08/19 00:29:42;;;;;;;32.40;18.85;;;;;;;-142.57;73.72;115900.28;4994687;28;20062;-83
2023/08/19 00:32:07;;;;;;;22.48;17.65;;;;;;;-142.57;74.88;115900.28;4977272;28;20038;-81
2023/08/19 00:34:39;;;;;;;;;;;;;;;-142.57;74.54;115900.28;4977415;28;20034;-81
2023/08/19 00:37:07;;;;;;;24.95;14.90;;;;;;;-142.57;76.03;115900.28;4960365;28;19964;-81
2023/08/19 00:39:33;;;;;;;19.48;14.88;;;;;;;-142.57;75.60;115900.28;4981194;28;20093;-83
2023/08/19 00:41:59;;;;;;;20.23;13.43;;;;;;;-142.57;75.83;115900.28;4998120;28;20060;-81
2023/08/19 00:44:25;;;;;;;22.08;14.32;;;;;;;-142.57;76.86;115900.28;4998416;28;20039;-79
2023/08/19 00:46:52;;;;;;;24.42;13.93;;;;;;;-142.57;76.82;115900.28;4997349;28;20042;-78
2023/08/19 00:49:18;;;;;;;22.17;13.90;;;;;;;-142.57;76.67;115900.28;5018949;23;20137;-81
2023/08/19 00:51:43;;;;;;;29.73;15.15;;;;;;;-142.57;76.42;115900.28;5016287;28;20057;-79
2023/08/19 00:54:09;;;;;;;24.08;13.80;;;;;;;-142.57;75.89;115900.28;5014530;28;20093;-81
2023/08/19 00:56:35;;;;;;;17.98;13.43;;;;;;;-142.57;75.16;115900.28;5016106;28;20050;-81
2023/08/19 00:59:01;;;;;;;18.58;13.73;;;;;;;-142.57;74.26;115900.28;5015783;28;20098;-83
2023/08/19 01:01:26;;;;;;;17.35;13.80;;;;;;;-142.57;74.90;115900.28;5017051;28;20098;-81
2023/08/19 01:03:53;;;;;;;19.00;14.43;;;;;;;-142.57;74.79;115900.28;5015636;28;20038;-80
2023/08/19 01:06:24;;;;;;;17.90;14.50;;;;;;;-142.57;74.67;115900.28;5013786;28;20034;-81
2023/08/19 01:09:09;;;;;;;19.35;14.43;;;;;;;-142.57;75.81;115900.28;5015680;28;20041;-82
2023/08/19 01:12:01;;;;;;;29.60;15.48;;;;;;;-142.57;76.92;115900.28;5016485;28;20042;-83
2023/08/19 01:14:43;;;;;;;19.17;15.32;;;;;;;-142.57;77.13;115900.28;5015452;28;20038;-81
2023/08/19 01:17:14;;;;;;;28.58;15.23;;;;;;;-142.57;77.92;115900.28;5012464;28;20026;-81
2023/08/19 01:19:41;;;;;;;20.55;14.93;;;;;;;-142.57;78.58;115900.28;5011260;28;20049;-79
2023/08/19 01:22:09;;;;;;;20.02;14.95;;;;;;;-142.57;78.79;115900.28;5011172;28;20034;-81
2023/08/19 01:24:40;;;;;;;20.38;14.30;;;;;;;-142.57;78.93;115900.28;5014898;28;20058;-83
2023/08/19 01:27:20;;;;;;;22.13;14.35;;;;;;;-142.57;79.36;115900.28;5016859;28;20034;-83
2023/08/19 01:29:46;;;;;;;19.30;14.30;;;;;;;-142.57;79.31;115900.28;5017158;28;20058;-82
2023/08/19 01:32:15;;;;;;;18.52;15.02;;;;;;;-142.57;79.75;115900.28;5017185;28;20023;-79
2023/08/19 01:34:42;;;;;;;23.42;15.23;;;;;;;-142.57;79.95;115900.28;5018084;28;20162;-82
2023/08/19 01:37:13;;;;;;;27.85;15.52;;;;;;;-142.57;80.92;115900.28;5016576;28;20034;-80
2023/08/19 01:39:41;;;;;;;22.80;15.00;;;;;;;-142.57;81.28;115900.28;5015219;28;20039;-81
2023/08/19 01:42:08;;;;;;;24.40;14.90;;;;;;;-142.57;81.63;115900.28;5011180;28;20030;-84
2023/08/19 01:44:34;;;;;;;24.27;15.25;;;;;;;-142.57;81.61;115900.28;5008799;28;20101;-81
2023/08/19 01:47:16;;;;;;;22.83;13.95;;;;;;;-142.57;82.11;115900.28;5007773;28;20511;-81
2023/08/19 01:49:44;;;;;;;22.80;14.68;;;;;;;-142.57;82.76;115900.28;5007202;28;20061;-81
2023/08/19 01:52:13;;;;;;;20.98;14.25;;;;;;;-142.57;82.64;115900.28;5009653;28;20034;-82
2023/08/19 01:54:40;;;;;;;18.27;14.25;;;;;;;-142.57;82.92;115900.28;5012687;28;20022;-81
2023/08/19 01:57:06;;;;;;;20.13;14.20;;;;;;;-142.57;83.67;115900.28;5032095;28;20029;-80
2023/08/19 01:59:32;;;;;;;22.92;14.40;;;;;;;-142.57;83.66;115900.28;5018376;28;20073;-81
2023/08/19 02:01:58;;;;;;;17.38;13.88;;;;;;;-142.57;83.19;115900.28;5019335;28;20033;-82
2023/08/19 02:04:27;;;;;;;21.70;14.25;;;;;;;-142.57;82.95;115900.28;5020314;28;20061;-83
2023/08/19 02:06:53;;;;;;;22.30;14.35;;;;;;;-142.57;83.16;115900.28;5020482;28;20114;-81
2023/08/19 02:09:19;;;;;;;19.80;14.13;;;;;;;-142.57;83.60;115900.28;5018895;28;20026;-82
2023/08/19 02:11:44;;;;;;;24.25;14.38;;;;;;;-142.57;83.22;115900.28;5017946;28;20019;-80
2023/08/19 02:14:11;;;;;;;19.38;13.32;;;;;;;-142.57;83.94;115900.28;5010235;28;20382;-82
2023/08/19 02:16:36;;;;;;;20.13;14.02;;;;;;;-142.57;83.62;115900.28;5000522;28;20045;-80
2023/08/19 02:19:04;;;;;;;17.60;13.98;;;;;;;-142.57;83.76;115900.28;4998654;28;20570;-82
2023/08/19 02:21:29;;;;;;;22.58;14.30;;;;;;;-142.57;84.54;115900.28;5008428;28;20046;-83
2023/08/19 02:23:55;;;;;;;16.48;13.93;;;;;;;-142.57;85.24;115900.28;5000892;28;20162;-81
2023/08/19 02:26:21;;;;;;;23.17;15.05;;;;;;;-142.57;85.01;115900.28;4998029;28;20046;-83
2023/08/19 02:28:46;;;;;;;21.33;14.15;;;;;;;-142.57;85.56;115900.28;4980050;28;20046;-82
2023/08/19 02:31:12;;;;;;;19.20;15.07;;;;;;;-142.57;86.15;115900.28;4996458;28;20030;-83
2023/08/19 02:33:38;;;;;;;25.30;16.00;;;;;;;-142.57;86.52;115900.28;4997265;28;20051;-80
2023/08/19 02:36:04;;;;;;;18.13;15.88;;;;;;;-142.57;86.87;115900.28;4999147;28;20105;-80
2023/08/19 02:38:30;;;;;;;19.08;14.98;;;;;;;-142.57;86.06;115900.28;4999659;28;20046;-82
2023/08/19 02:40:57;;;;;;;18.35;14.55;;;;;;;-142.57;86.02;115900.28;4997895;28;20034;-82
2023/08/19 02:43:22;;;;;;;21.80;15.30;;;;;;;-142.57;86.14;115900.28;4997442;28;20034;-82
2023/08/19 02:45:48;;;;;;;25.98;15.15;;;;;;;-142.57;86.47;115900.28;4996067;28;20178;-84
2023/08/19 02:48:17;;;;;;;23.60;14.60;;;;;;;-142.57;87.00;115900.28;4997443;28;20034;-81
2023/08/19 02:50:42;;;;;;;21.13;13.77;;;;;;;-142.57;86.66;115900.28;4997298;28;20528;-83
2023/08/19 02:53:08;;;;;;;25.48;14.20;;;;;;;-142.57;87.20;115900.28;4998870;28;20046;-82
2023/08/19 02:55:33;;;;;;;22.30;14.13;;;;;;;-142.57;88.45;115900.28;4997638;28;20169;-84
2023/08/19 02:58:02;;;;;;;24.67;14.70;;;;;;;-142.57;87.79;115900.28;4996556;28;20038;-83
2023/08/19 03:00:27;;;;;;;25.30;15.10;;;;;;;-142.57;88.12;115900.28;4997191;28;20433;-81
2023/08/19 03:02:53;;;;;;;23.55;14.10;;;;;;;-142.57;88.69;115900.28;4997358;28;20125;-85
2023/08/19 03:05:19;;;;;;;19.65;14.40;;;;;;;-142.57;88.65;115900.28;4998306;28;20034;-81
2023/08/19 03:07:44;;;;;;;20.60;14.23;;;;;;;-142.57;88.98;115900.28;4998568;28;20066;-83
2023/08/19 03:10:10;;;;;;;24.08;14.30;;;;;;;-142.57;88.94;115900.28;5000456;28;20488;-83
2023/08/19 03:12:35;;;;;;;22.70;13.88;;;;;;;-142.57;88.12;115900.28;4999254;28;20034;-82
2023/08/19 03:15:01;;;;;;;19.23;14.25;;;;;;;-142.57;88.04;115900.28;4998285;28;20125;-82
2023/08/19 03:17:27;;;;;;;23.55;14.80;;;;;;;-142.57;87.91;115900.28;4999790;28;20088;-82
2023/08/19 03:19:55;;;;;;;22.02;13.93;;;;;;;-142.57;88.06;115900.28;4987766;28;20061;-84
2023/08/19 03:22:20;;;;;;;20.27;14.45;;;;;;;-142.57;89.73;115900.28;5006168;28;20034;-81
2023/08/19 03:24:46;;;;;;;23.52;14.85;;;;;;;-142.57;89.58;115900.28;5013299;28;20034;-82
2023/08/19 03:27:11;;;;;;;23.13;14.57;;;;;;;-142.57;89.79;115900.28;5013226;28;20038;-81
2023/08/19 03:29:38;;;;;;;24.65;16.50;;;;;;;-142.57;89.73;115900.28;5013165;28;20089;-81
2023/08/19 03:32:04;;;;;;;21.08;16.48;;;;;;;-142.57;89.79;115900.28;5010577;28;20061;-82
2023/08/19 03:34:30;;;;;;;23.23;17.52;;;;;;;-142.57;90.42;115900.28;5004365;28;20054;-81
2023/08/19 03:36:55;;;;;;;21.15;17.35;;;;;;;-142.57;91.44;115900.28;5005715;28;20038;-81
2023/08/19 03:39:25;;;;;;;25.98;18.20;;;;;;;-142.57;91.59;115900.28;5011606;28;20026;-82
2023/08/19 03:41:50;;;;;;;28.95;18.90;;;;;;;-142.57;92.09;115900.28;5016357;28;20038;-82
2023/08/19 03:44:36;;;;;;;28.13;19.73;;;;;;;-142.57;91.92;115900.28;5015404;28;20034;-81
2023/08/19 03:47:01;;;;;;;30.17;19.80;;;;;;;-142.57;91.87;115900.28;5013014;28;20042;-81
2023/08/19 03:49:27;;;;;;;31.63;21.00;;;;;;;-142.57;91.73;115900.28;5009946;28;20065;-80
2023/08/19 03:51:53;;;;;;;28.67;21.08;;;;;;;-142.57;92.38;115900.28;4998362;28;20041;-82
2023/08/19 03:54:19;;;;;;;31.50;20.48;;;;;;;-142.57;92.25;115900.28;4989701;28;20032;-83
2023/08/19 03:56:44;;;;;;;29.45;19.33;;;;;;;-142.57;92.45;115900.28;4961018;28;20189;-81
2023/08/19 03:59:10;;;;;;;25.15;19.95;;;;;;;-142.57;91.93;115900.28;4975785;28;20082;-83
2023/08/19 04:01:39;;;;;;;25.90;20.60;;;;;;;-142.57;92.71;115900.28;4977171;28;20433;-81
2023/08/19 04:04:06;;;;;;;32.78;19.92;;;;;;;-142.57;92.23;115900.28;4977001;28;20042;-82
2023/08/19 04:06:33;;;;;;;35.60;21.73;;;;;;;-142.57;92.56;115900.28;4976305;28;20035;-84
2023/08/19 04:08:58;;;;;;;35.60;21.35;;;;;;;-142.57;93.90;115900.28;4975297;28;20035;-83
2023/08/19 04:11:24;;;;;;;34.47;22.15;;;;;;;-142.57;94.13;115900.28;4975282;28;20066;-82
2023/08/19 04:13:50;;;;;;;33.30;22.35;;;;;;;-142.57;94.79;115900.28;4974946;28;20136;-83
2023/08/19 04:16:16;;;;;;;33.55;22.38;;;;;;;-142.57;95.51;115900.28;4978860;28;20038;-82
2023/08/19 04:18:41;;;;;;;34.58;21.52;;;;;;;-142.57;97.07;115900.28;4978175;28;20042;-81
2023/08/19 04:21:09;;;;;;;29.33;20.65;;;;;;;-142.57;97.43;115900.28;4983105;28;20081;-82
2023/08/19 04:23:35;;;;;;;28.83;20.25;;;;;;;-142.57;97.25;115900.28;4996144;28;20070;-80
2023/08/19 04:26:02;;;;;;;34.10;19.67;;;;;;;-142.57;97.53;115900.28;4997976;28;20046;-81
2023/08/19 04:28:28;;;;;;;31.10;19.15;;;;;;;-142.57;97.66;115900.28;4998095;28;20065;-83
2023/08/19 04:31:02;;;;;;;30.83;18.75;;;;;;;-142.57;97.50;115900.28;4994003;28;20579;-80
2023/08/19 04:33:29;;;;;;;24.00;18.05;;;;;;;-142.57;97.22;115900.28;4992369;28;20069;-81
2023/08/19 04:35:55;;;;;;;32.72;18.75;;;;;;;-142.57;98.12;115900.28;4994012;28;20022;-81
2023/08/19 04:38:21;;;;;;;27.92;18.67;;;;;;;-142.57;98.32;115900.28;4992463;28;20552;-82
2023/08/19 04:40:47;;;;;;;34.13;19.67;;;;;;;-142.57;98.63;115900.28;4993521;28;20049;-81
2023/08/19 04:43:12;;;;;;;27.63;18.50;;;;;;;-142.57;98.94;115900.28;4993197;28;20053;-80
2023/08/19 04:45:39;;;;;;;25.35;20.33;;;;;;;-142.57;99.37;115900.28;4993642;28;20036;-83
2023/08/19 04:48:05;;;;;;;27.70;21.08;;;;;;;-142.57;99.67;115900.28;4993966;28;20527;-85
2023/08/19 04:50:32;;;;;;;32.60;20.67;;;;;;;-142.57;100.00;115900.28;4994151;28;20117;-81
2023/08/19 04:52:58;;;;;;;39.05;23.15;;;;;;;-142.57;100.00;115900.28;5009986;28;20035;-78
2023/08/19 04:55:27;;;;;;;29.50;21.88;;;;;;;-142.57;100.00;115900.28;5013716;28;20026;-82
2023/08/19 04:57:55;;;;;;;28.15;22.08;;;;;;;-142.57;100.00;115900.28;5015267;28;20065;-86
2023/08/19 05:00:22;;;;;;;38.60;21.67;;;;;;;-142.57;100.00;115900.28;4997576;28;20406;-82
2023/08/19 05:02:49;;;;;;;31.73;22.98;;;;;;;-142.57;100.00;115900.28;4992316;28;20212;-83
2023/08/19 05:05:18;;;;;;;28.92;22.02;;;;;;;-142.57;99.87;115900.28;4993769;28;20077;-82
2023/08/19 05:07:43;;;;;;;29.05;22.35;;;;;;;-142.57;100.00;115900.28;4994524;28;20041;-80
2023/08/19 05:10:09;;;;;;;44.60;23.80;;;;;;;-142.57;99.98;115900.28;4993608;28;20027;-82
2023/08/19 05:12:35;;;;;;;36.65;23.58;;;;;;;-142.57;99.75;115900.28;4991896;28;20129;-83
2023/08/19 05:15:01;;;;;;;35.05;22.30;;;;;;;-142.57;98.93;115900.28;4992190;28;20065;-84
2023/08/19 05:17:27;;;;;;;37.22;23.15;;;;;;;-142.57;99.52;115900.28;4976916;28;20053;-85
2023/08/19 05:19:55;;;;;;;37.15;24.90;;;;;;;-142.57;98.42;115900.28;4993991;28;20026;-84
2023/08/19 05:22:22;;;;;;;32.92;23.52;;;;;;;-142.57;97.61;115900.28;4993972;28;20034;-81
2023/08/19 05:24:49;;;;;;;33.70;23.15;;;;;;;-142.57;96.90;115900.28;4996507;28;20069;-85
2023/08/19 05:27:14;;;;;;;36.53;22.98;;;;;;;-142.57;94.14;115900.28;4999955;28;20193;-88
2023/08/19 05:29:49;;;;;;;32.13;22.70;;;;;;;-142.57;93.45;115900.28;4998081;28;20027;-88
2023/08/19 05:32:20;;;;;;;32.88;22.95;;;;;;;-142.57;90.88;115900.28;5000251;28;20613;-86
2023/08/19 05:34:46;;;;;;;38.87;24.17;;;;;;;-142.57;90.39;115900.28;5001182;28;20034;-87
2023/08/19 05:37:14;;;;;;;28.67;22.30;;;;;;;-142.57;89.37;115900.28;5000271;28;20576;-86
2023/08/19 05:39:39;;;;;;;26.65;20.38;;;;;;;-142.57;84.66;115900.28;5000903;28;20035;-86
2023/08/19 05:42:06;;;;;;;35.40;19.98;;;;;;;-142.57;80.93;115900.28;4999976;28;20026;-89
2023/08/19 05:44:32;;;;;;;51.85;21.55;;;;;;;-142.57;79.54;115900.28;5000981;28;20058;-88
2023/08/19 05:46:58;;;;;;;35.88;17.77;;;;;;;-142.57;74.61;115900.28;4999773;28;20034;-88
2023/08/19 05:49:27;;;;;;;28.92;16.95;;;;;;;-142.57;72.62;115900.28;4999888;28;20045;-89
2023/08/19 05:51:53;;;;;;;25.33;16.90;;;;;;;-142.57;75.06;115900.28;5001217;28;20038;-86
2023/08/19 05:54:19;;;;;;;30.15;16.85;;;;;;;-142.57;72.97;115900.28;4980259;28;20022;-82
2023/08/19 05:56:45;;;;;;;23.50;16.02;;;;;;;-142.57;71.38;115900.28;4980490;28;20043;-81
2023/08/19 05:59:10;;;;;;;19.48;14.50;;;;;;;-142.57;67.71;115900.28;4981420;28;20371;-82
2023/08/19 06:01:36;;;;;;;28.15;14.90;;;;;;;-142.57;67.74;115900.28;4995042;28;20043;-82
2023/08/19 06:04:02;;;;;;;29.05;14.88;;;;;;;-142.57;66.76;115900.28;4991705;28;20047;-82
2023/08/19 06:06:28;;;;;;;22.27;14.43;;;;;;;-142.57;66.28;115900.28;4979577;28;20102;-81
2023/08/19 06:08:53;;;;;;;24.60;14.02;;;;;;;-142.57;64.77;115900.28;4979256;28;20046;-80
2023/08/19 06:11:19;;;;;;;23.33;14.75;;;;;;;-142.57;64.35;115900.28;4980465;28;20031;-81
2023/08/19 06:13:44;;;;;;;30.17;13.35;;;;;;;-142.57;63.58;115900.28;4979103;28;20126;-82
2023/08/19 06:16:10;;;;;;;23.65;13.55;;;;;;;-142.57;61.22;115900.28;4977005;28;20094;-83
2023/08/19 06:18:36;;;;;;;23.33;14.15;;;;;;;-142.57;60.89;115900.28;4989790;28;20062;-82
2023/08/19 06:21:03;;;;;;;26.40;14.88;;;;;;;-142.57;58.00;115900.28;4983970;28;20046;-83
2023/08/19 06:23:28;;;;;;;24.42;14.93;;;;;;;-142.57;61.40;115900.28;4966551;28;20039;-85
2023/08/19 06:25:54;;;;;;;26.02;16.00;;;;;;;-142.57;62.10;115900.28;4985238;28;20039;-84
2023/08/19 06:28:21;;;;;;;21.30;16.83;;;;;;;-142.57;62.33;115900.28;4984786;28;20077;-86
2023/08/19 06:30:47;;;;;;;28.33;17.95;;;;;;;-142.57;60.17;115900.28;4979558;28;20113;-84
2023/08/19 06:33:14;;;;;;;32.10;18.05;;;;;;;-142.57;59.96;115900.28;4979548;28;20556;-84
2023/08/19 06:35:40;;;;;;;30.52;17.20;;;;;;;-142.57;59.12;115900.28;4979437;28;20061;-83
2023/08/19 06:38:26;;;;;;;21.05;16.20;;;;;;;-142.57;57.97;115900.28;4984551;28;20382;-83
2023/08/19 06:41:06;;;;;;;26.27;17.02;;;;;;;-142.57;54.95;115900.28;4977917;28;20046;-81
2023/08/19 06:43:32;;;;;;;32.17;19.25;;;;;;;-142.57;57.54;115900.28;4980288;28;20046;-85
2023/08/19 06:46:00;;;;;;;34.45;20.02;;;;;;;-142.57;56.44;115900.28;4979953;28;20125;-88
2023/08/19 06:48:26;;;;;;;38.50;19.52;;;;;;;-142.57;56.16;115900.28;4982592;28;20626;-85
2023/08/19 06:50:53;;;;;;;28.95;18.98;;;;;;;-142.57;55.56;115900.28;4978551;28;20035;-87
2023/08/19 06:53:20;;;;;;;27.15;18.60;;;;;;;-142.57;55.93;115900.28;4978306;28;20043;-82
2023/08/19 06:55:58;;;;;;;34.08;18.08;;;;;;;-142.57;55.07;115900.28;4975585;28;20039;-81
2023/08/19 06:58:28;;;;;;;21.50;17.15;;;;;;;-142.57;54.40;115900.28;4977071;28;20045;-82
2023/08/19 07:01:00;;;;;;;21.52;17.73;;;;;;;-142.57;55.17;115900.28;4975548;28;20074;-82
2023/08/19 07:03:32;;;;;;;32.22;18.10;;;;;;;-142.57;54.86;115900.28;4976484;28;20061;-84
2023/08/19 07:06:02;;;;;;;25.40;18.77;;;;;;;-142.57;54.86;115900.28;4976782;28;20043;-82
2023/08/19 07:08:30;;;;;;;25.27;18.00;;;;;;;-142.57;55.02;115900.28;4976018;28;20041;-82
2023/08/19 07:11:00;;;;;;;28.25;19.00;;;;;;;-142.57;56.92;115900.28;4980550;28;20030;-90
2023/08/19 07:13:27;;;;;;;31.83;17.83;;;;;;;-142.57;54.11;115900.28;4984340;28;20046;-89
2023/08/19 07:15:59;;;;;;;26.63;17.10;;;;;;;-142.57;52.43;115900.28;4981950;28;20098;-91
2023/08/19 07:18:26;;;;;;;36.35;17.52;;;;;;;-142.57;53.09;115900.28;4982369;28;20077;-89
2023/08/19 07:20:56;;;;;;;26.70;17.35;;;;;;;-142.57;52.37;115900.28;4982452;28;20031;-92
2023/08/19 07:23:24;;;;;;;25.95;17.73;;;;;;;-142.57;52.15;115900.28;4996964;28;20035;-93
2023/08/19 07:25:59;;;;;;;27.35;15.63;;;;;;;-142.57;53.28;115900.28;4985196;28;20039;-88
2023/08/19 07:28:25;;;;;;;20.63;15.23;;;;;;;-142.57;51.91;115900.28;4996291;28;20449;-89
2023/08/19 07:30:54;;;;;;;30.52;14.63;;;;;;;-142.57;49.86;115900.28;4990595;28;20046;-85
2023/08/19 07:33:20;;;;;;;24.02;12.52;;;;;;;-142.57;49.88;115900.28;4984589;28;20449;-88
2023/08/19 07:35:46;;;;;;;18.63;14.07;;;;;;;-142.57;49.01;115900.28;4998226;28;20038;-87
2023/08/19 07:38:15;;;;;;;25.02;13.85;;;;;;;-142.57;50.24;115900.28;4999447;28;20549;-87
2023/08/19 07:40:41;;;;;;;24.20;14.88;;;;;;;-142.57;49.77;115900.28;4998746;28;20434;-88
2023/08/19 07:43:10;;;;;;;21.80;14.23;;;;;;;-142.57;48.87;115900.28;4999544;28;20136;-89
2023/08/19 07:45:35;;;;;;;21.42;14.68;;;;;;;-142.57;47.60;115900.28;5002456;28;20181;-90
2023/08/19 07:48:01;;;;;;;34.58;16.23;;;;;;;-142.57;47.89;115900.28;5001251;28;20059;-89
2023/08/19 07:50:27;;;;;;;29.50;16.58;;;;;;;-142.57;49.03;115900.28;5005796;28;20457;-89
2023/08/19 07:52:52;;;;;;;27.15;16.85;;;;;;;-142.57;48.80;115900.28;5009330;28;20238;-87
2023/08/19 07:55:18;;;;;;;27.90;15.88;;;;;;;-142.57;48.38;115900.28;5017318;28;20030;-88
2023/08/19 07:57:43;;;;;;;30.42;17.65;;;;;;;-142.57;49.08;115900.28;5018246;28;20065;-88
2023/08/19 08:00:14;;;;;;;25.60;16.27;;;;;;;-142.57;47.55;115900.28;5010634;28;20048;-86
2023/08/19 08:02:44;;;;;;;27.98;17.45;;;;;;;-142.57;48.46;115900.28;4988772;28;20038;-87
2023/08/19 08:05:10;;;;;;;23.02;17.13;;;;;;;-142.57;46.93;115900.28;5006160;28;20053;-88
2023/08/19 08:07:37;;;;;;;23.52;15.98;;;;;;;-142.57;45.50;115900.28;5005723;28;20038;-90
2023/08/19 08:10:05;;;;;;;20.23;15.63;;;;;;;-142.57;44.82;115900.28;5002803;28;20030;-91
2023/08/19 08:12:31;;;;;;;22.52;15.75;;;;;;;-142.57;43.61;115900.28;5000916;28;20109;-89
2023/08/19 08:15:01;;;;;;;31.63;17.67;;;;;;;-142.57;44.48;115900.28;5000505;28;20397;-89
2023/08/19 08:17:26;;;;;;;27.20;17.88;;;;;;;-142.57;44.73;115900.28;5002191;28;20022;-91
2023/08/19 08:19:52;;;;;;;24.60;16.00;;;;;;;-142.57;44.18;115900.28;5001230;28;20046;-90
2023/08/19 08:22:18;;;;;;;25.20;17.33;;;;;;;-142.57;42.75;115900.28;5000557;28;20038;-92
2023/08/19 08:24:43;;;;;;;32.10;18.10;;;;;;;-142.57;42.85;115900.28;5001132;28;20038;-90
2023/08/19 08:27:09;;;;;;;23.98;15.70;;;;;;;-142.57;43.05;115900.28;4998839;28;20473;-90
2023/08/19 08:29:35;;;;;;;28.95;16.23;;;;;;;-142.57;43.10;115900.28;4999085;28;20042;-90
2023/08/19 08:32:00;;;;;;;22.83;15.05;;;;;;;-142.57;41.96;115900.28;4999461;28;20046;-88
2023/08/19 08:34:26;;;;;;;21.02;15.43;;;;;;;-142.57;40.58;115900.28;4998822;28;20174;-92
2023/08/19 08:36:54;;;;;;;24.42;16.73;;;;;;;-142.57;42.67;115900.28;4999293;28;20038;-89
2023/08/19 08:39:20;;;;;;;22.55;17.55;;;;;;;-142.57;42.96;115900.28;4997826;28;20031;-88
2023/08/19 08:41:45;;;;;;;24.00;15.35;;;;;;;-142.57;43.11;115900.28;4985152;28;20081;-86
2023/08/19 08:44:14;;;;;;;19.52;14.13;;;;;;;-142.57;42.39;115900.28;4998483;28;20113;-88
2023/08/19 08:46:40;;;;;;;22.27;12.20;;;;;;;-142.57;39.41;115900.28;4996586;28;20058;-87
2023/08/19 08:49:07;;;;;;;22.70;14.20;;;;;;;-142.57;40.14;115900.28;4996851;28;20026;-88
2023/08/19 08:51:35;;;;;;;24.13;17.25;;;;;;;-142.57;38.92;115900.28;4995705;28;20385;-90
2023/08/19 08:54:05;;;;;;;20.45;13.93;;;;;;;-142.57;39.62;115900.28;4999525;28;20046;-85
2023/08/19 08:56:30;;;;;;;28.17;17.35;;;;;;;-142.57;39.60;115900.28;4999802;28;20054;-88
2023/08/19 08:58:56;;;;;;;27.60;14.55;;;;;;;-142.57;38.49;115900.28;4998114;28;20365;-91
2023/08/19 09:01:23;;;;;;;21.90;13.82;;;;;;;-142.57;39.76;115900.28;4999469;28;20100;-91
2023/08/19 09:03:54;;;;;;;30.65;16.67;;;;;;;-142.57;40.87;115900.28;5001697;28;20035;-88
2023/08/19 09:06:19;;;;;;;31.00;18.37;;;;;;;-142.57;40.79;115900.28;4999141;28;20042;-86
2023/08/19 09:09:10;;;;;;;26.02;17.73;;;;;;;-142.57;41.87;115900.28;5001706;28;20307;-86
2023/08/19 09:11:39;;;;;;;20.27;15.85;;;;;;;-142.57;40.88;115900.28;5002379;28;20031;-85
2023/08/19 09:14:19;;;;;;;24.58;16.08;;;;;;;-142.57;41.66;115900.28;4998621;28;20512;-88
2023/08/19 09:16:44;;;;;;;26.17;15.07;;;;;;;-142.57;39.90;115900.28;4999445;28;20113;-88
2023/08/19 09:19:10;;;;;;;22.65;17.23;;;;;;;-142.57;39.36;115900.28;5001614;28;20069;-89
2023/08/19 09:21:45;;;;;;;23.67;18.00;;;;;;;-142.57;39.90;115900.28;5000218;28;20034;-86
2023/08/19 09:24:15;;;;;;;26.17;18.00;;;;;;;-142.57;39.08;115900.28;5002484;28;20445;-87
2023/08/19 09:26:40;;;;;;;28.17;17.10;;;;;;;-142.57;40.82;115900.28;5001836;28;20030;-88
2023/08/19 09:29:06;;;;;;;28.95;20.20;;;;;;;-142.57;40.11;115900.28;5002181;28;20084;-86
2023/08/19 09:31:32;;;;;;;25.30;21.08;;;;;;;-142.57;41.09;115900.28;5000670;28;20045;-88
2023/08/19 09:33:59;;;;;;;19.77;17.08;;;;;;;-142.57;41.05;115900.28;5006713;28;20038;-86
2023/08/19 09:36:25;;;;;;;25.30;17.02;;;;;;;-142.57;40.22;115900.28;5006498;28;20374;-87
2023/08/19 09:38:55;;;;;;;21.90;15.30;;;;;;;-142.57;40.30;115900.28;5007684;28;20045;-85
2023/08/19 09:41:27;;;;;;;21.35;14.85;;;;;;;-142.57;38.56;115900.28;5007587;28;20386;-91
2023/08/19 09:43:53;;;;;;;;;;;;;;;-142.57;38.26;115900.28;5010963;28;20065;-86
2023/08/19 09:46:19;;;;;;;25.45;18.20;;;;;;;-142.57;37.42;115900.28;5012341;28;19917;-89
2023/08/19 09:48:53;;;;;;;22.88;15.32;;;;;;;-142.57;36.24;115900.28;5006364;28;20094;-88
2023/08/19 09:51:26;;;;;;;24.67;16.67;;;;;;;-142.57;37.43;115900.28;5005038;28;20039;-87
2023/08/19 09:53:53;;;;;;;32.78;17.08;;;;;;;-142.57;37.26;115900.28;4987008;28;20564;-90
2023/08/19 09:56:23;;;;;;;26.02;13.52;;;;;;;-142.57;37.61;115900.28;5002781;28;20038;-88
2023/08/19 09:58:54;;;;;;;23.90;14.20;;;;;;;-142.57;37.64;115900.28;5002172;28;20037;-87
2023/08/19 10:01:25;;;;;;;25.83;17.63;;;;;;;-142.57;38.28;115900.28;5000433;28;20046;-88
2023/08/19 10:03:51;;;;;;;25.77;16.60;;;;;;;-142.57;38.45;115900.28;5002444;28;20035;-88
2023/08/19 10:06:28;;;;;;;26.20;16.75;;;;;;;-142.57;38.31;115900.28;5001058;28;20114;-90
2023/08/19 10:08:59;;;;;;;22.88;16.08;;;;;;;-142.57;38.15;115900.28;5002294;28;20038;-90
2023/08/19 10:11:32;;;;;;;19.92;13.85;;;;;;;-142.57;38.02;115900.28;5002229;28;20478;-88
2023/08/19 10:14:03;;;;;;;19.15;14.18;;;;;;;-142.57;37.09;115900.28;5013398;28;20065;-87
2023/08/19 10:16:38;;;;;;;17.40;11.32;;;;;;;-142.57;36.02;115900.28;5015137;28;20043;-86
2023/08/19 10:19:15;;;;;;;25.27;17.08;;;;;;;-142.57;36.25;115900.28;5019674;28;20034;-86
2023/08/19 10:21:42;;;;;;;24.20;15.55;;;;;;;-142.57;36.20;115900.28;5016344;28;20107;-88
2023/08/19 10:24:11;;;;;;;26.48;16.33;;;;;;;-142.57;36.40;115900.28;5002007;28;20033;-89
2023/08/19 10:26:44;;;;;;;28.75;17.05;;;;;;;-142.57;36.69;115900.28;5000495;28;20038;-87
2023/08/19 10:29:12;;;;;;;19.35;15.93;;;;;;;-142.57;36.35;115900.28;5000265;28;20026;-87
2023/08/19 10:31:38;;;;;;;22.00;16.13;;;;;;;-142.57;37.07;115900.28;4998872;28;20045;-88
2023/08/19 10:34:20;;;;;;;25.20;12.93;;;;;;;-142.57;36.84;115900.28;4998274;28;20042;-89
2023/08/19 10:37:05;;;;;;;20.88;14.05;;;;;;;-142.57;35.70;115900.28;4998612;28;20383;-88
2023/08/19 10:39:31;;;;;;;23.25;11.98;;;;;;;-142.57;35.01;115900.28;4998673;28;20041;-88
2023/08/19 10:41:57;;;;;;;27.48;13.00;;;;;;;-142.57;34.51;115900.28;4997750;28;20401;-88
2023/08/19 10:44:27;;;;;;;19.50;13.70;;;;;;;-142.57;34.81;115900.28;4998485;28;20035;-88
2023/08/19 10:47:07;;;;;;;15.27;11.95;;;;;;;-142.57;34.14;115900.28;4998442;28;20390;-88
2023/08/19 10:49:36;;;;;;;17.92;12.02;;;;;;;-142.57;33.54;115900.28;5000749;28;20093;-88
2023/08/19 10:52:06;;;;;;;18.20;10.95;;;;;;;-142.57;33.25;115900.28;4998943;28;20037;-89
2023/08/19 10:54:31;;;;;;;34.78;13.35;;;;;;;-142.57;33.38;115900.28;4999417;28;20046;-90
2023/08/19 10:57:27;;;;;;;17.85;10.85;;;;;;;-142.57;33.37;115900.28;5010405;28;20033;-87